createdAt,value
2023-05-04T00:00:34.549Z,8.05
2023-05-04T00:03:02.368Z,9.02
2023-05-04T00:05:29.984Z,5.50
2023-05-04T00:07:57.408Z,7.35
2023-05-04T00:10:24.845Z,5.90
2023-05-04T00:12:52.696Z,5.32
2023-05-04T00:15:20.521Z,8.27
2023-05-04T00:17:48.132Z,7.60
2023-05-04T00:20:15.723Z,7.78
2023-05-04T00:22:43.381Z,10.32
2023-05-04T00:25:10.982Z,6.55
2023-05-04T00:27:38.590Z,6.38
2023-05-04T00:30:06.833Z,8.15
2023-05-04T00:32:34.529Z,6.03
2023-05-04T00:35:02.065Z,7.20
2023-05-04T00:37:29.533Z,9.07
2023-05-04T00:39:57.007Z,8.63
2023-05-04T00:42:24.514Z,6.90
2023-05-04T00:44:51.965Z,8.02
2023-05-04T00:47:21.495Z,6.55
2023-05-04T00:49:49.164Z,5.82
2023-05-04T00:52:17.781Z,6.78
2023-05-04T00:54:46.731Z,8.82
2023-05-04T00:57:17.130Z,5.90
2023-05-04T00:59:44.674Z,5.25
2023-05-04T01:02:12.058Z,6.53
2023-05-04T01:04:39.770Z,6.88
2023-05-04T01:07:21.615Z,6.10
2023-05-04T01:10:01.972Z,6.70
2023-05-04T01:12:41.238Z,8.25
2023-05-04T01:15:13.033Z,7.00
2023-05-04T01:17:40.561Z,6.40
2023-05-04T01:20:09.965Z,6.25
2023-05-04T01:22:38.604Z,5.78
2023-05-04T01:25:07.889Z,7.85
2023-05-04T01:27:56.805Z,5.07
2023-05-04T01:30:33.313Z,6.43
2023-05-04T01:33:02.353Z,10.00
2023-05-04T01:35:30.529Z,5.93
2023-05-04T01:37:59.003Z,6.00
2023-05-04T01:40:26.435Z,7.07
2023-05-04T01:42:53.937Z,6.78
2023-05-04T01:45:21.719Z,5.95
2023-05-04T01:47:49.627Z,9.00
2023-05-04T01:50:17.220Z,9.55
2023-05-04T01:52:44.785Z,6.40
2023-05-04T01:55:12.339Z,7.88
2023-05-04T01:57:39.735Z,9.45
2023-05-04T02:00:08.185Z,6.15
2023-05-04T02:02:45.235Z,7.63
2023-05-04T02:05:17.602Z,8.18
2023-05-04T02:07:45.145Z,9.35
2023-05-04T02:10:12.663Z,6.72
2023-05-04T02:12:41.868Z,7.45
2023-05-04T02:15:09.763Z,9.10
2023-05-04T02:17:37.417Z,7.55
2023-05-04T02:20:05.714Z,6.15
2023-05-04T02:22:33.442Z,6.50
2023-05-04T02:25:01.107Z,5.97
2023-05-04T02:27:28.511Z,5.18
2023-05-04T02:29:58.457Z,9.27
2023-05-04T02:32:26.298Z,4.38
2023-05-04T02:34:53.926Z,5.47
2023-05-04T02:37:22.382Z,5.75
2023-05-04T02:39:49.875Z,5.18
2023-05-04T02:42:17.630Z,9.65
2023-05-04T02:44:45.113Z,5.85
2023-05-04T02:47:12.885Z,6.28
2023-05-04T02:49:40.354Z,6.50
2023-05-04T02:52:08.036Z,4.85
2023-05-04T02:54:35.836Z,6.85
2023-05-04T02:57:03.408Z,9.93
2023-05-04T02:59:30.918Z,8.35
2023-05-04T03:01:58.442Z,5.75
2023-05-04T03:04:25.944Z,4.32
2023-05-04T03:06:53.621Z,5.28
2023-05-04T03:09:21.136Z,5.97
2023-05-04T03:11:48.690Z,4.75
2023-05-04T03:14:16.435Z,8.65
2023-05-04T03:16:45.603Z,6.88
2023-05-04T03:19:13.215Z,5.55
2023-05-04T03:21:40.786Z,8.55
2023-05-04T03:24:08.287Z,6.85
2023-05-04T03:26:36.102Z,4.13
2023-05-04T03:29:03.580Z,4.28
2023-05-04T03:31:31.485Z,7.20
2023-05-04T03:33:59.443Z,6.15
2023-05-04T03:36:27.182Z,6.57
2023-05-04T03:38:54.794Z,4.45
2023-05-04T03:41:22.413Z,7.60
2023-05-04T03:43:49.793Z,5.63
2023-05-04T03:46:17.327Z,4.30
2023-05-04T03:48:46.516Z,7.47
2023-05-04T03:51:16.980Z,6.03
2023-05-04T03:53:45.031Z,5.28
2023-05-04T03:56:15.091Z,6.85
2023-05-04T03:58:42.665Z,5.20
2023-05-04T04:01:10.234Z,5.28
2023-05-04T04:03:39.308Z,8.35
2023-05-04T04:06:09.812Z,7.15
2023-05-04T04:08:38.140Z,6.45
2023-05-04T04:11:05.691Z,5.85
2023-05-04T04:13:33.152Z,5.35
2023-05-04T04:16:00.664Z,5.10
2023-05-04T04:18:28.281Z,5.32
2023-05-04T04:20:55.736Z,6.30
2023-05-04T04:23:24.333Z,7.75
2023-05-04T04:25:53.936Z,5.15
2023-05-04T04:28:21.647Z,6.43
2023-05-04T04:30:49.395Z,8.90
2023-05-04T04:33:17.150Z,5.53
2023-05-04T04:35:44.590Z,5.25
2023-05-04T04:38:12.041Z,5.13
2023-05-04T04:40:39.530Z,7.22
2023-05-04T04:43:07.127Z,7.32
2023-05-04T04:45:35.836Z,9.63
2023-05-04T04:48:04.074Z,5.93
2023-05-04T04:50:32.331Z,8.55
2023-05-04T04:53:00.169Z,4.78
2023-05-04T04:55:27.616Z,6.50
2023-05-04T04:57:55.767Z,8.65
2023-05-04T05:00:24.258Z,5.90
2023-05-04T05:02:51.866Z,9.60
2023-05-04T05:05:19.322Z,5.85
2023-05-04T05:07:47.003Z,5.25
2023-05-04T05:10:14.609Z,8.10
2023-05-04T05:12:42.160Z,6.22
2023-05-04T05:15:10.113Z,6.65
2023-05-04T05:17:37.922Z,6.30
2023-05-04T05:20:13.497Z,6.57
2023-05-04T05:22:41.460Z,8.30
2023-05-04T05:25:09.181Z,6.25
2023-05-04T05:27:36.924Z,7.97
2023-05-04T05:30:06.437Z,9.15
2023-05-04T05:32:34.274Z,5.35
2023-05-04T05:35:01.923Z,6.57
2023-05-04T05:37:29.612Z,11.20
2023-05-04T05:39:57.120Z,9.23
2023-05-04T05:42:24.642Z,6.63
2023-05-04T05:44:52.311Z,8.57
2023-05-04T05:47:19.917Z,10.18
2023-05-04T05:49:47.495Z,5.75
2023-05-04T05:52:15.027Z,6.28
2023-05-04T05:54:42.513Z,9.18
2023-05-04T05:57:10.282Z,7.65
2023-05-04T05:59:37.759Z,6.75
2023-05-04T06:02:06.096Z,7.05
2023-05-04T06:04:33.595Z,8.20
2023-05-04T06:07:01.162Z,9.10
2023-05-04T06:09:28.619Z,14.82
2023-05-04T06:11:56.184Z,7.45
2023-05-04T06:14:23.755Z,8.57
2023-05-04T06:16:51.307Z,11.38
2023-05-04T06:19:18.782Z,8.75
2023-05-04T06:21:49.080Z,8.15
2023-05-04T06:24:16.646Z,8.15
2023-05-04T06:26:44.118Z,9.95
2023-05-04T06:29:12.061Z,9.18
2023-05-04T06:31:39.551Z,9.18
2023-05-04T06:34:10.467Z,7.63
2023-05-04T06:36:48.690Z,9.57
2023-05-04T06:39:16.233Z,8.50
2023-05-04T06:41:43.651Z,10.52
2023-05-04T06:44:11.175Z,10.98
2023-05-04T06:46:38.700Z,9.30
2023-05-04T06:49:06.382Z,9.35
2023-05-04T06:51:37.637Z,9.55
2023-05-04T06:54:05.630Z,8.90
2023-05-04T06:56:33.182Z,10.68
2023-05-04T06:59:00.923Z,10.00
2023-05-04T07:01:28.533Z,10.48
2023-05-04T07:03:58.448Z,11.02
2023-05-04T07:06:27.324Z,7.68
2023-05-04T07:08:54.858Z,9.75
2023-05-04T07:11:22.276Z,10.57
2023-05-04T07:13:50.059Z,9.80
2023-05-04T07:16:17.578Z,9.30
2023-05-04T07:18:45.204Z,8.65
2023-05-04T07:21:26.734Z,8.30
2023-05-04T07:23:55.589Z,10.27
2023-05-04T07:26:23.496Z,9.23
2023-05-04T07:28:51.429Z,9.82
2023-05-04T07:31:18.946Z,9.18
2023-05-04T07:33:46.537Z,8.30
2023-05-04T07:36:14.000Z,8.13
2023-05-04T07:38:41.736Z,7.82
2023-05-04T07:41:09.329Z,9.02
2023-05-04T07:43:36.820Z,9.20
2023-05-04T07:46:04.385Z,12.40
2023-05-04T07:48:34.668Z,9.52
2023-05-04T07:51:02.116Z,9.90
2023-05-04T07:53:29.684Z,13.77
2023-05-04T07:56:01.075Z,11.10
2023-05-04T07:58:28.929Z,11.77
2023-05-04T08:00:56.411Z,7.00
2023-05-04T08:03:24.006Z,12.70
2023-05-04T08:05:52.246Z,10.43
2023-05-04T08:08:20.517Z,9.73
2023-05-04T08:10:49.227Z,8.10
2023-05-04T08:13:17.094Z,8.52
2023-05-04T08:15:45.151Z,8.77
2023-05-04T08:18:12.964Z,10.05
2023-05-04T08:20:40.810Z,10.15
2023-05-04T08:23:08.554Z,11.45
2023-05-04T08:25:36.152Z,11.55
2023-05-04T08:28:03.904Z,10.57
2023-05-04T08:30:32.093Z,10.50
2023-05-04T08:33:00.472Z,9.05
2023-05-04T08:35:28.901Z,11.88
2023-05-04T08:37:56.508Z,12.00
2023-05-04T08:40:24.359Z,10.32
2023-05-04T08:42:52.568Z,8.93
2023-05-04T08:45:20.024Z,12.15
2023-05-04T08:47:47.765Z,9.00
2023-05-04T08:50:15.433Z,9.23
2023-05-04T08:52:47.891Z,7.88
2023-05-04T08:55:17.307Z,11.55
2023-05-04T08:57:45.483Z,10.32
2023-05-04T09:00:16.963Z,9.82
2023-05-04T09:02:45.920Z,8.70
2023-05-04T09:05:13.665Z,10.15
2023-05-04T09:07:41.179Z,9.88
2023-05-04T09:10:09.319Z,5.60
2023-05-04T09:12:38.178Z,9.65
2023-05-04T09:15:16.826Z,12.68
2023-05-04T09:18:04.019Z,7.68
2023-05-04T09:20:42.717Z,8.77
2023-05-04T09:23:11.925Z,6.95
2023-05-04T09:25:53.616Z,7.47
2023-05-04T09:28:33.743Z,10.18
2023-05-04T09:31:02.789Z,5.60
2023-05-04T09:33:30.760Z,9.65
2023-05-04T09:36:13.427Z,7.05
2023-05-04T09:38:41.470Z,9.30
2023-05-04T09:41:09.451Z,11.02
2023-05-04T09:43:41.796Z,7.88
2023-05-04T09:46:19.404Z,3.88
2023-05-04T09:48:55.730Z,4.95
2023-05-04T09:51:25.670Z,6.30
2023-05-04T09:53:54.037Z,7.32
2023-05-04T09:56:41.443Z,5.22
2023-05-04T09:59:10.793Z,3.45
2023-05-04T10:01:38.628Z,3.65
2023-05-04T10:04:07.233Z,4.40
2023-05-04T10:06:35.053Z,4.30
2023-05-04T10:09:02.610Z,4.80
2023-05-04T10:11:30.938Z,3.55
2023-05-04T10:13:58.613Z,4.05
2023-05-04T10:16:43.359Z,1.88
2023-05-04T10:19:32.291Z,3.63
2023-05-04T10:22:56.663Z,6.05
2023-05-04T10:25:35.331Z,4.05
2023-05-04T10:28:20.953Z,3.08
2023-05-04T10:30:48.557Z,2.33
2023-05-04T10:33:16.493Z,3.83
2023-05-04T10:35:54.108Z,3.60
2023-05-04T10:38:42.397Z,2.85
2023-05-04T10:41:19.882Z,2.40
2023-05-04T10:43:53.550Z,1.65
2023-05-04T10:46:22.868Z,2.63
2023-05-04T10:48:51.140Z,1.48
2023-05-04T10:51:25.299Z,2.20
2023-05-04T10:53:55.827Z,2.72
2023-05-04T10:56:25.340Z,2.85
2023-05-04T10:58:53.934Z,1.70
2023-05-04T11:01:22.366Z,1.38
2023-05-04T11:03:51.612Z,3.33
2023-05-04T11:06:24.008Z,2.88
2023-05-04T11:09:03.292Z,3.03
2023-05-04T11:11:36.787Z,3.45
2023-05-04T11:14:04.426Z,3.47
2023-05-04T11:16:31.919Z,1.70
2023-05-04T11:19:12.644Z,3.20
2023-05-04T11:21:40.876Z,3.85
2023-05-04T11:24:09.072Z,2.40
2023-05-04T11:26:48.790Z,4.75
2023-05-04T11:29:16.905Z,1.00
2023-05-04T11:31:54.842Z,5.95
2023-05-04T11:34:22.548Z,3.33
2023-05-04T11:36:50.201Z,5.10
2023-05-04T11:39:17.745Z,4.85
2023-05-04T11:41:45.141Z,3.03
2023-05-04T11:44:13.352Z,3.15
2023-05-04T11:46:41.140Z,2.05
2023-05-04T11:49:08.959Z,5.18
2023-05-04T11:51:36.440Z,7.43
2023-05-04T11:54:04.328Z,2.58
2023-05-04T11:56:41.495Z,5.63
2023-05-04T11:59:10.937Z,4.32
2023-05-04T12:01:38.683Z,7.20
2023-05-04T12:04:06.560Z,5.22
2023-05-04T12:06:34.209Z,4.05
2023-05-04T12:09:03.517Z,7.57
2023-05-04T12:11:30.935Z,5.97
2023-05-04T12:14:14.138Z,2.55
2023-05-04T12:16:43.324Z,3.78
2023-05-04T12:19:13.253Z,6.55
2023-05-04T12:21:52.517Z,3.40
2023-05-04T12:24:24.097Z,6.95
2023-05-04T12:26:51.683Z,5.05
2023-05-04T12:29:19.230Z,4.80
2023-05-04T12:31:47.686Z,6.63
2023-05-04T12:34:15.232Z,9.52
2023-05-04T12:36:44.634Z,5.97
2023-05-04T12:39:12.011Z,4.20
2023-05-04T12:41:40.290Z,7.15
2023-05-04T12:44:09.292Z,6.40
2023-05-04T12:46:37.547Z,7.57
2023-05-04T12:49:05.057Z,9.23
2023-05-04T12:51:32.542Z,7.03
2023-05-04T12:54:00.130Z,6.53
2023-05-04T12:56:27.708Z,4.88
2023-05-04T12:58:55.329Z,9.25
2023-05-04T13:01:23.134Z,3.78
2023-05-04T13:03:50.740Z,8.40
2023-05-04T13:06:18.279Z,7.00
2023-05-04T13:08:47.289Z,4.03
2023-05-04T13:11:19.301Z,8.70
2023-05-04T13:13:47.069Z,9.55
2023-05-04T13:16:14.683Z,4.82
2023-05-04T13:18:42.643Z,9.13
2023-05-04T13:21:10.114Z,4.88
2023-05-04T13:23:37.867Z,5.15
2023-05-04T13:26:06.504Z,6.18
2023-05-04T13:28:33.905Z,5.63
2023-05-04T13:31:01.783Z,4.53
2023-05-04T13:33:30.724Z,7.72
2023-05-04T13:35:59.176Z,6.53
2023-05-04T13:38:27.443Z,6.18
2023-05-04T13:40:56.074Z,7.60
2023-05-04T13:43:23.886Z,3.45
2023-05-04T13:45:51.428Z,5.28
2023-05-04T13:48:19.234Z,4.03
2023-05-04T13:50:46.974Z,4.05
2023-05-04T13:53:14.505Z,6.45
2023-05-04T13:55:42.006Z,5.82
2023-05-04T13:58:09.947Z,6.30
2023-05-04T14:00:38.208Z,8.55
2023-05-04T14:03:05.741Z,7.57
2023-05-04T14:05:35.512Z,5.75
2023-05-04T14:08:03.359Z,7.10
2023-05-04T14:10:30.904Z,3.35
2023-05-04T14:12:58.464Z,6.55
2023-05-04T14:15:27.557Z,5.43
2023-05-04T14:17:55.255Z,8.75
2023-05-04T14:20:22.955Z,9.13
2023-05-04T14:22:50.419Z,5.28
2023-05-04T14:25:17.958Z,7.25
2023-05-04T14:27:45.496Z,5.10
2023-05-04T14:30:13.268Z,4.82
2023-05-04T14:32:41.668Z,4.32
2023-05-04T14:35:10.977Z,4.88
2023-05-04T14:37:40.157Z,6.32
2023-05-04T14:40:09.576Z,5.72
2023-05-04T14:42:37.510Z,4.22
2023-05-04T14:45:06.976Z,5.95
2023-05-04T14:47:35.340Z,5.03
2023-05-04T14:50:03.020Z,7.70
2023-05-04T14:52:30.834Z,6.30
2023-05-04T14:54:58.339Z,5.90
2023-05-04T14:57:25.796Z,5.30
2023-05-04T14:59:53.220Z,6.15
2023-05-04T15:02:21.046Z,4.25
2023-05-04T15:04:48.926Z,4.85
2023-05-04T15:07:18.743Z,5.85
2023-05-04T15:09:46.728Z,3.40
2023-05-04T15:12:14.262Z,4.40
2023-05-04T15:14:41.644Z,3.85
2023-05-04T15:17:09.565Z,6.50
2023-05-04T15:19:38.619Z,3.85
2023-05-04T15:22:06.836Z,9.60
2023-05-04T15:24:34.328Z,6.40
2023-05-04T15:27:02.205Z,4.90
2023-05-04T15:29:29.890Z,5.95
2023-05-04T15:31:57.376Z,4.70
2023-05-04T15:34:24.812Z,8.55
2023-05-04T15:36:52.682Z,8.68
2023-05-04T15:39:20.180Z,11.48
2023-05-04T15:41:47.902Z,5.40
2023-05-04T15:44:15.364Z,6.72
2023-05-04T15:46:43.271Z,6.90
2023-05-04T15:49:11.008Z,4.85
2023-05-04T15:51:38.569Z,4.38
2023-05-04T15:54:06.144Z,6.93
2023-05-04T15:56:33.661Z,6.72
2023-05-04T15:59:01.272Z,5.47
2023-05-04T16:01:28.887Z,8.00
2023-05-04T16:03:59.548Z,5.05
2023-05-04T16:06:27.886Z,6.25
2023-05-04T16:08:55.601Z,7.40
2023-05-04T16:11:23.141Z,6.38
2023-05-04T16:13:56.092Z,7.47
2023-05-04T16:16:25.122Z,5.38
2023-05-04T16:18:53.757Z,6.57
2023-05-04T16:21:21.386Z,5.00
2023-05-04T16:23:48.818Z,7.38
2023-05-04T16:26:16.727Z,7.47
2023-05-04T16:28:45.487Z,10.32
2023-05-04T16:31:13.256Z,8.73
2023-05-04T16:33:47.170Z,6.63
2023-05-04T16:36:15.295Z,8.35
2023-05-04T16:38:42.735Z,8.07
2023-05-04T16:41:10.217Z,5.47
2023-05-04T16:43:37.649Z,4.68
2023-05-04T16:46:05.246Z,6.93
2023-05-04T16:48:32.959Z,8.82
2023-05-04T16:51:00.514Z,8.50
2023-05-04T16:53:27.887Z,4.88
2023-05-04T16:55:55.427Z,7.70
2023-05-04T16:58:23.106Z,4.88
2023-05-04T17:00:51.099Z,6.53
2023-05-04T17:03:18.640Z,4.80
2023-05-04T17:05:46.218Z,4.90
2023-05-04T17:08:13.744Z,6.28
2023-05-04T17:10:41.284Z,7.38
2023-05-04T17:13:09.013Z,6.00
2023-05-04T17:15:36.669Z,12.95
2023-05-04T17:18:08.268Z,12.18
2023-05-04T17:20:35.905Z,10.02
2023-05-04T17:23:03.595Z,9.20
2023-05-04T17:25:31.325Z,8.63
2023-05-04T17:27:58.733Z,11.05
2023-05-04T17:30:26.472Z,11.82
2023-05-04T17:32:55.757Z,10.13
2023-05-04T17:35:26.256Z,7.78
2023-05-04T17:37:58.582Z,11.77
2023-05-04T17:40:28.004Z,14.80
2023-05-04T17:42:57.065Z,8.50
2023-05-04T17:45:24.829Z,11.88
2023-05-04T17:47:52.671Z,8.27
2023-05-04T17:50:21.228Z,5.90
2023-05-04T17:52:55.704Z,8.85
2023-05-04T17:55:27.739Z,6.03
2023-05-04T17:57:55.389Z,12.00
2023-05-04T18:00:23.020Z,10.40
2023-05-04T18:02:50.710Z,9.07
2023-05-04T18:05:18.272Z,9.52
2023-05-04T18:07:45.841Z,12.77
2023-05-04T18:10:13.256Z,10.45
2023-05-04T18:12:40.847Z,9.57
2023-05-04T18:15:09.250Z,8.98
2023-05-04T18:17:39.846Z,12.90
2023-05-04T18:20:09.161Z,10.73
2023-05-04T18:22:37.211Z,14.77
2023-05-04T18:25:05.116Z,11.02
2023-05-04T18:27:33.786Z,13.00
2023-05-04T18:30:02.339Z,7.85
2023-05-04T18:32:29.938Z,12.95
2023-05-04T18:35:01.405Z,9.95
2023-05-04T18:37:32.152Z,11.45
2023-05-04T18:39:59.844Z,11.88
2023-05-04T18:42:27.507Z,11.75
2023-05-04T18:44:55.099Z,11.13
2023-05-04T18:47:22.484Z,12.25
2023-05-04T18:49:54.717Z,10.93
2023-05-04T18:52:22.506Z,9.32
2023-05-04T18:54:50.077Z,7.78
2023-05-04T18:57:17.913Z,9.02
2023-05-04T18:59:45.545Z,5.93
2023-05-04T19:02:13.196Z,7.15
2023-05-04T19:04:40.801Z,10.05
2023-05-04T19:07:10.018Z,10.30
2023-05-04T19:09:37.873Z,10.38
2023-05-04T19:12:05.696Z,14.60
2023-05-04T19:14:33.435Z,10.38
2023-05-04T19:17:01.487Z,9.13
2023-05-04T19:19:28.991Z,10.75
2023-05-04T19:21:56.600Z,8.27
2023-05-04T19:24:24.281Z,12.52
2023-05-04T19:26:51.849Z,10.70
2023-05-04T19:29:19.525Z,9.98
2023-05-04T19:31:47.376Z,11.27
2023-05-04T19:34:17.471Z,7.43
2023-05-04T19:36:45.490Z,9.55
2023-05-04T19:39:13.409Z,11.18
2023-05-04T19:41:41.033Z,9.70
2023-05-04T19:44:10.236Z,7.95
2023-05-04T19:46:38.047Z,11.15
2023-05-04T19:49:05.664Z,17.55
2023-05-04T19:51:33.263Z,10.07
2023-05-04T19:54:00.807Z,12.88
2023-05-04T19:56:28.412Z,7.03
2023-05-04T19:58:55.887Z,11.45
2023-05-04T20:01:23.334Z,11.15
2023-05-04T20:03:50.770Z,15.57
2023-05-04T20:06:18.319Z,9.18
2023-05-04T20:08:46.011Z,9.85
2023-05-04T20:11:14.068Z,10.82
2023-05-04T20:13:42.690Z,11.93
2023-05-04T20:16:10.250Z,8.00
2023-05-04T20:18:37.720Z,10.23
2023-05-04T20:21:05.561Z,9.95
2023-05-04T20:23:33.551Z,14.15
2023-05-04T20:26:02.552Z,8.98
2023-05-04T20:28:32.584Z,8.85
2023-05-04T20:31:00.244Z,11.02
2023-05-04T20:33:27.681Z,11.95
2023-05-04T20:35:55.461Z,13.07
2023-05-04T20:38:23.026Z,9.38
2023-05-04T20:40:52.439Z,10.05
2023-05-04T20:43:20.184Z,8.52
2023-05-04T20:45:47.811Z,10.93
2023-05-04T20:48:15.323Z,8.52
2023-05-04T20:50:42.962Z,12.25
2023-05-04T20:53:10.382Z,12.38
2023-05-04T20:55:43.519Z,16.77
2023-05-04T20:58:11.662Z,15.07
2023-05-04T21:00:40.214Z,15.75
2023-05-04T21:03:07.852Z,12.05
2023-05-04T21:05:38.770Z,9.43
2023-05-04T21:08:06.523Z,8.48
2023-05-04T21:10:33.953Z,13.57
2023-05-04T21:13:01.492Z,11.73
2023-05-04T21:15:28.940Z,12.40
2023-05-04T21:17:56.507Z,12.25
2023-05-04T21:20:23.976Z,8.18
2023-05-04T21:22:51.534Z,12.25
2023-05-04T21:25:18.976Z,11.93
2023-05-04T21:27:46.455Z,14.05
2023-05-04T21:30:13.943Z,13.98
2023-05-04T21:32:41.701Z,10.45
2023-05-04T21:35:09.530Z,7.20
2023-05-04T21:37:37.346Z,10.52
2023-05-04T21:40:05.526Z,8.48
2023-05-04T21:42:33.168Z,12.73
2023-05-04T21:45:00.683Z,11.85
2023-05-04T21:47:28.471Z,13.52
2023-05-04T21:49:55.982Z,8.75
2023-05-04T21:52:24.357Z,12.05
2023-05-04T21:54:51.870Z,8.48
2023-05-04T21:57:19.549Z,10.30
2023-05-04T21:59:50.326Z,12.15
2023-05-04T22:02:17.993Z,14.23
2023-05-04T22:04:45.717Z,8.60
2023-05-04T22:07:13.292Z,16.50
2023-05-04T22:09:40.721Z,14.73
2023-05-04T22:12:08.377Z,13.77
2023-05-04T22:14:35.803Z,12.82
2023-05-04T22:17:03.669Z,13.27
2023-05-04T22:19:31.179Z,13.93
2023-05-04T22:21:58.864Z,10.20
2023-05-04T22:24:26.876Z,15.27
2023-05-04T22:26:54.618Z,12.80
2023-05-04T22:29:22.391Z,11.05
2023-05-04T22:31:49.923Z,13.55
2023-05-04T22:34:17.317Z,12.40
2023-05-04T22:36:44.838Z,11.27
2023-05-04T22:39:12.342Z,13.60
2023-05-04T22:41:39.823Z,11.27
2023-05-04T22:44:07.483Z,10.90
2023-05-04T22:46:35.216Z,13.82
2023-05-04T22:49:02.856Z,11.00
2023-05-04T22:51:30.530Z,13.68
2023-05-04T22:53:57.939Z,14.95
2023-05-04T22:56:26.020Z,14.00
2023-05-04T22:58:53.564Z,17.38
2023-05-04T23:01:21.404Z,18.95
2023-05-04T23:03:49.101Z,11.90
2023-05-04T23:06:16.710Z,16.25
2023-05-04T23:08:45.487Z,15.88
2023-05-04T23:11:14.426Z,14.45
2023-05-04T23:13:41.901Z,13.27
2023-05-04T23:16:09.451Z,15.18
2023-05-04T23:18:37.071Z,18.55
2023-05-04T23:21:04.792Z,18.80
2023-05-04T23:23:32.158Z,18.98
2023-05-04T23:25:59.598Z,14.43
2023-05-04T23:28:27.136Z,13.98
2023-05-04T23:30:55.890Z,11.52
2023-05-04T23:33:23.412Z,17.10
2023-05-04T23:35:54.889Z,15.82
2023-05-04T23:38:23.053Z,14.30
2023-05-04T23:40:51.835Z,13.98
2023-05-04T23:43:19.784Z,15.00
2023-05-04T23:45:47.232Z,14.02
2023-05-04T23:48:14.781Z,16.90
2023-05-04T23:50:52.789Z,17.33
2023-05-04T23:53:20.744Z,15.00
2023-05-04T23:56:02.661Z,18.33
2023-05-04T23:58:31.502Z,17.45
